createdAt,value
2023-04-19T00:00:02.913Z,1.77
2023-04-19T00:01:02.692Z,1.76
2023-04-19T00:02:03.112Z,1.78
2023-04-19T00:03:03.530Z,1.77
2023-04-19T00:04:02.820Z,1.78
2023-04-19T00:05:03.071Z,1.74
2023-04-19T00:06:02.568Z,1.76
2023-04-19T00:07:02.229Z,1.76
2023-04-19T00:08:02.606Z,1.78
2023-04-19T00:09:02.274Z,1.77
2023-04-19T00:10:02.860Z,1.78
2023-04-19T00:11:02.424Z,1.75
2023-04-19T00:12:02.697Z,1.74
2023-04-19T00:13:02.609Z,1.75
2023-04-19T00:14:02.966Z,1.75
2023-04-19T00:15:02.533Z,1.75
2023-04-19T00:16:02.438Z,1.75
2023-04-19T00:17:02.010Z,1.79
2023-04-19T00:18:02.539Z,1.75
2023-04-19T00:19:01.988Z,1.72
2023-04-19T00:20:01.953Z,1.74
2023-04-19T00:21:02.450Z,1.74
2023-04-19T00:22:02.926Z,1.74
2023-04-19T00:23:02.640Z,1.71
2023-04-19T00:24:02.488Z,1.74
2023-04-19T00:25:02.369Z,1.74
2023-04-19T00:26:02.276Z,1.74
2023-04-19T00:27:01.754Z,1.72
2023-04-19T00:28:02.259Z,1.72
2023-04-19T00:29:02.365Z,1.72
2023-04-19T00:30:02.032Z,1.74
2023-04-19T00:31:01.933Z,1.73
2023-04-19T00:32:02.248Z,1.74
2023-04-19T00:33:02.638Z,1.72
2023-04-19T00:34:02.213Z,1.73
2023-04-19T00:35:02.038Z,1.71
2023-04-19T00:36:02.434Z,1.73
2023-04-19T00:37:02.324Z,1.72
2023-04-19T00:38:02.233Z,1.71
2023-04-19T00:39:02.675Z,1.73
2023-04-19T00:40:02.477Z,1.73
2023-04-19T00:41:02.281Z,1.73
2023-04-19T00:42:01.896Z,1.72
2023-04-19T00:43:01.965Z,1.73
2023-04-19T00:44:02.365Z,1.72
2023-04-19T00:45:02.225Z,1.73
2023-04-19T00:46:02.115Z,1.70
2023-04-19T00:47:02.116Z,1.73
2023-04-19T00:48:02.151Z,1.72
2023-04-19T00:49:02.596Z,1.73
2023-04-19T00:50:02.024Z,1.70
2023-04-19T00:51:02.425Z,1.71
2023-04-19T00:52:02.068Z,1.70
2023-04-19T00:53:02.645Z,1.70
2023-04-19T00:54:02.465Z,1.70
2023-04-19T00:55:02.363Z,1.72
2023-04-19T00:56:02.304Z,1.72
2023-04-19T00:57:02.357Z,1.70
2023-04-19T00:58:02.300Z,1.70
2023-04-19T00:59:02.597Z,1.69
2023-04-19T01:00:02.474Z,1.70
2023-04-19T01:01:02.326Z,1.67
2023-04-19T01:02:03.126Z,1.68
2023-04-19T01:03:03.393Z,1.69
2023-04-19T01:04:03.044Z,1.70
2023-04-19T01:05:03.296Z,1.69
2023-04-19T01:06:02.964Z,1.66
2023-04-19T01:07:02.975Z,1.68
2023-04-19T01:08:03.288Z,1.67
2023-04-19T01:09:02.996Z,1.68
2023-04-19T01:10:03.238Z,1.69
2023-04-19T01:11:02.807Z,1.69
2023-04-19T01:12:02.498Z,1.68
2023-04-19T01:13:02.640Z,1.67
2023-04-19T01:14:02.591Z,1.70
2023-04-19T01:15:02.461Z,1.69
2023-04-19T01:16:02.369Z,1.70
2023-04-19T01:17:02.926Z,1.67
2023-04-19T01:18:02.903Z,1.68
2023-04-19T01:19:03.017Z,1.66
2023-04-19T01:20:02.935Z,1.68
2023-04-19T01:21:03.325Z,1.68
2023-04-19T01:22:03.058Z,1.68
2023-04-19T01:23:03.009Z,1.68
2023-04-19T01:24:02.942Z,1.68
2023-04-19T01:25:02.865Z,1.68
2023-04-19T01:26:02.811Z,1.66
2023-04-19T01:27:03.297Z,1.68
2023-04-19T01:28:03.464Z,1.67
2023-04-19T01:29:03.459Z,1.67
2023-04-19T01:30:03.365Z,1.66
2023-04-19T01:31:03.708Z,1.65
2023-04-19T01:32:03.254Z,1.66
2023-04-19T01:33:03.289Z,1.67
2023-04-19T01:34:03.684Z,1.67
2023-04-19T01:35:03.422Z,1.66
2023-04-19T01:36:03.363Z,1.68
2023-04-19T01:37:03.175Z,1.66
2023-04-19T01:38:02.897Z,1.65
2023-04-19T01:39:03.204Z,1.65
2023-04-19T01:40:02.696Z,1.66
2023-04-19T01:41:03.044Z,1.65
2023-04-19T01:42:02.968Z,1.66
2023-04-19T01:43:03.175Z,1.64
2023-04-19T01:44:02.880Z,1.67
2023-04-19T01:45:02.770Z,1.64
2023-04-19T01:46:03.398Z,1.67
2023-04-19T01:47:03.091Z,1.65
2023-04-19T01:48:03.488Z,1.61
2023-04-19T01:49:03.146Z,1.64
2023-04-19T01:50:02.872Z,1.63
2023-04-19T01:51:03.551Z,1.62
2023-04-19T01:52:03.198Z,1.64
2023-04-19T01:53:03.077Z,1.63
2023-04-19T01:54:02.917Z,1.64
2023-04-19T01:55:03.499Z,1.64
2023-04-19T01:56:03.424Z,1.63
2023-04-19T01:57:03.183Z,1.64
2023-04-19T01:58:03.637Z,1.63
2023-04-19T01:59:03.270Z,1.64
2023-04-19T02:00:03.095Z,1.62
2023-04-19T02:01:03.234Z,1.62
2023-04-19T02:02:03.284Z,1.62
2023-04-19T02:03:03.406Z,1.63
2023-04-19T02:04:02.823Z,1.62
2023-04-19T02:05:03.005Z,1.64
2023-04-19T02:06:02.958Z,1.63
2023-04-19T02:07:02.592Z,1.65
2023-04-19T02:08:02.568Z,1.63
2023-04-19T02:09:02.337Z,1.61
2023-04-19T02:10:02.263Z,1.63
2023-04-19T02:11:02.427Z,1.62
2023-04-19T02:12:03.062Z,1.63
2023-04-19T02:13:03.279Z,1.64
2023-04-19T02:14:02.987Z,1.63
2023-04-19T02:15:02.824Z,1.62
2023-04-19T02:16:03.023Z,1.62
2023-04-19T02:17:02.701Z,1.64
2023-04-19T02:18:02.649Z,1.61
2023-04-19T02:19:02.559Z,1.63
2023-04-19T02:20:02.414Z,1.61
2023-04-19T02:21:02.412Z,1.61
2023-04-19T02:22:03.025Z,1.61
2023-04-19T02:23:02.801Z,1.63
2023-04-19T02:24:02.897Z,1.61
2023-04-19T02:25:03.203Z,1.61
2023-04-19T02:26:02.872Z,1.62
2023-04-19T02:27:03.313Z,1.60
2023-04-19T02:28:03.156Z,1.62
2023-04-19T02:29:04.042Z,1.61
2023-04-19T02:30:03.247Z,1.60
2023-04-19T02:31:03.145Z,1.61
2023-04-19T02:32:02.842Z,1.59
2023-04-19T02:33:02.630Z,1.60
2023-04-19T02:34:02.501Z,1.61
2023-04-19T02:35:02.427Z,1.61
2023-04-19T02:36:02.898Z,1.59
2023-04-19T02:37:03.393Z,1.59
2023-04-19T02:38:03.029Z,1.60
2023-04-19T02:39:02.905Z,1.61
2023-04-19T02:40:02.825Z,1.59
2023-04-19T02:41:03.376Z,1.59
2023-04-19T02:42:02.760Z,1.59
2023-04-19T02:43:02.330Z,1.59
2023-04-19T02:44:02.307Z,1.60
2023-04-19T02:45:02.244Z,1.60
2023-04-19T02:46:02.412Z,1.57
2023-04-19T02:47:02.910Z,1.58
2023-04-19T02:48:02.751Z,1.60
2023-04-19T02:49:02.801Z,1.60
2023-04-19T02:50:02.743Z,1.57
2023-04-19T02:51:02.666Z,1.58
2023-04-19T02:52:03.248Z,1.58
2023-04-19T02:53:02.869Z,1.59
2023-04-19T02:54:03.030Z,1.57
2023-04-19T02:55:02.907Z,1.59
2023-04-19T02:56:02.800Z,1.61
2023-04-19T02:57:03.379Z,1.60
2023-04-19T02:58:03.202Z,1.62
2023-04-19T02:59:03.340Z,1.56
2023-04-19T03:00:03.041Z,1.59
2023-04-19T03:01:03.120Z,1.57
2023-04-19T03:02:02.844Z,1.56
2023-04-19T03:03:02.819Z,1.58
2023-04-19T03:05:02.487Z,1.59
2023-04-19T03:06:02.587Z,1.60
2023-04-19T03:07:02.349Z,1.58
2023-04-19T03:08:03.017Z,1.57
2023-04-19T03:09:02.699Z,1.58
2023-04-19T03:10:02.522Z,1.58
2023-04-19T03:11:02.486Z,1.61
2023-04-19T03:12:03.285Z,1.57
2023-04-19T03:13:02.902Z,1.58
2023-04-19T03:14:02.809Z,1.58
2023-04-19T03:15:02.818Z,1.58
2023-04-19T03:16:02.749Z,1.59
2023-04-19T03:17:02.907Z,1.57
2023-04-19T03:18:03.023Z,1.59
2023-04-19T03:19:02.984Z,1.59
2023-04-19T03:20:02.925Z,1.57
2023-04-19T03:21:02.903Z,1.57
2023-04-19T03:22:01.918Z,1.57
2023-04-19T03:23:01.888Z,1.59
2023-04-19T03:24:02.494Z,1.58
2023-04-19T03:25:02.172Z,1.58
2023-04-19T03:26:02.114Z,1.58
2023-04-19T03:27:01.962Z,1.59
2023-04-19T03:28:02.239Z,1.59
2023-04-19T03:29:02.597Z,1.56
2023-04-19T03:30:02.275Z,1.58
2023-04-19T03:31:02.060Z,1.58
2023-04-19T03:32:01.999Z,1.56
2023-04-19T03:33:02.470Z,1.56
2023-04-19T03:34:02.354Z,1.56
2023-04-19T03:35:02.086Z,1.58
2023-04-19T03:36:02.519Z,1.57
2023-04-19T03:37:02.362Z,1.58
2023-04-19T03:38:02.974Z,1.55
2023-04-19T03:39:02.616Z,1.57
2023-04-19T03:40:02.398Z,1.53
2023-04-19T03:41:02.920Z,1.56
2023-04-19T03:42:02.650Z,1.58
2023-04-19T03:43:03.103Z,1.57
2023-04-19T03:44:03.047Z,1.55
2023-04-19T03:45:03.293Z,1.58
2023-04-19T03:46:02.773Z,1.58
2023-04-19T03:47:02.849Z,1.56
2023-04-19T03:48:03.292Z,1.58
2023-04-19T03:49:03.240Z,1.58
2023-04-19T03:50:03.067Z,1.59
2023-04-19T03:51:03.199Z,1.55
2023-04-19T03:52:02.111Z,1.56
2023-04-19T03:53:02.648Z,1.56
2023-04-19T03:54:02.567Z,1.57
2023-04-19T03:55:02.120Z,1.57
2023-04-19T03:56:02.621Z,1.58
2023-04-19T03:57:02.338Z,1.58
2023-04-19T03:58:02.939Z,1.57
2023-04-19T03:59:02.595Z,1.56
2023-04-19T04:00:02.493Z,1.56
2023-04-19T04:01:02.593Z,2.87
2023-04-19T04:02:02.719Z,3.00
2023-04-19T04:03:02.919Z,2.55
2023-04-19T04:04:04.826Z,3.20
2023-04-19T04:05:02.664Z,3.28
2023-04-19T04:06:02.863Z,3.37
2023-04-19T04:07:02.683Z,3.42
2023-04-19T04:08:03.303Z,3.46
2023-04-19T04:09:03.255Z,3.51
2023-04-19T04:10:03.260Z,3.51
2023-04-19T04:11:02.623Z,3.54
2023-04-19T04:12:02.270Z,2.83
2023-04-19T04:13:02.609Z,2.66
2023-04-19T04:14:02.387Z,2.58
2023-04-19T04:15:02.327Z,2.46
2023-04-19T04:16:02.364Z,2.40
2023-04-19T04:17:02.879Z,2.37
2023-04-19T04:18:03.290Z,2.31
2023-04-19T04:19:03.108Z,2.26
2023-04-19T04:20:03.141Z,2.24
2023-04-19T04:21:02.983Z,2.19
2023-04-19T04:22:02.659Z,2.17
2023-04-19T04:23:02.677Z,2.13
2023-04-19T04:24:03.054Z,2.10
2023-04-19T04:25:02.990Z,2.08
2023-04-19T04:26:02.972Z,2.07
2023-04-19T04:27:02.814Z,2.04
2023-04-19T04:28:03.196Z,2.03
2023-04-19T04:29:03.350Z,2.01
2023-04-19T04:30:03.275Z,1.98
2023-04-19T04:31:03.050Z,1.97
2023-04-19T04:32:03.203Z,1.96
2023-04-19T04:33:03.125Z,1.94
2023-04-19T04:34:02.917Z,1.94
2023-04-19T04:35:02.991Z,1.93
2023-04-19T04:36:02.993Z,1.90
2023-04-19T04:37:02.711Z,1.90
2023-04-19T04:38:08.466Z,1.90
2023-04-19T04:39:02.530Z,1.88
2023-04-19T04:40:02.466Z,1.86
2023-04-19T04:41:03.095Z,1.85
2023-04-19T04:42:02.855Z,1.84
2023-04-19T04:43:02.921Z,1.84
2023-04-19T04:45:02.835Z,1.82
2023-04-19T04:46:02.974Z,1.83
2023-04-19T04:47:03.017Z,1.79
2023-04-19T04:48:03.217Z,1.79
2023-04-19T04:49:02.797Z,1.78
2023-04-19T04:50:02.788Z,1.77
2023-04-19T04:51:02.821Z,1.76
2023-04-19T04:52:02.529Z,1.77
2023-04-19T04:53:02.582Z,1.76
2023-04-19T04:54:02.584Z,1.72
2023-04-19T04:55:02.625Z,1.73
2023-04-19T04:56:02.642Z,1.73
2023-04-19T04:57:02.597Z,1.74
2023-04-19T04:58:02.647Z,1.73
2023-04-19T04:59:02.687Z,1.72
2023-04-19T05:00:02.495Z,1.71
2023-04-19T05:01:02.851Z,1.72
2023-04-19T05:02:02.795Z,1.71
2023-04-19T05:03:03.326Z,1.71
2023-04-19T05:04:03.273Z,1.70
2023-04-19T05:05:03.154Z,1.69
2023-04-19T05:06:03.167Z,1.68
2023-04-19T05:07:02.139Z,1.68
2023-04-19T05:08:02.414Z,1.66
2023-04-19T05:09:02.315Z,1.68
2023-04-19T05:10:02.012Z,1.68
2023-04-19T05:11:01.981Z,1.68
2023-04-19T05:12:02.374Z,1.67
2023-04-19T05:13:02.694Z,1.67
2023-04-19T05:14:02.970Z,1.67
2023-04-19T05:15:02.789Z,1.68
2023-04-19T05:16:03.058Z,1.65
2023-04-19T05:17:03.374Z,1.66
2023-04-19T05:18:02.770Z,1.66
2023-04-19T05:19:02.725Z,1.66
2023-04-19T05:20:02.841Z,1.64
2023-04-19T05:21:02.876Z,1.65
2023-04-19T05:22:02.699Z,1.65
2023-04-19T05:23:02.810Z,1.64
2023-04-19T05:24:03.084Z,1.65
2023-04-19T05:25:02.975Z,1.64
2023-04-19T05:26:02.557Z,1.64
2023-04-19T05:27:02.209Z,1.64
2023-04-19T05:28:01.956Z,1.63
2023-04-19T05:29:02.069Z,1.61
2023-04-19T05:30:02.300Z,1.63
2023-04-19T05:31:01.994Z,1.62
2023-04-19T05:32:02.716Z,1.63
2023-04-19T05:33:02.765Z,1.61
2023-04-19T05:34:02.745Z,1.62
2023-04-19T05:35:02.390Z,1.59
2023-04-19T05:36:02.666Z,1.63
2023-04-19T05:37:03.022Z,1.59
2023-04-19T05:38:03.132Z,1.59
2023-04-19T05:39:03.060Z,1.61
2023-04-19T05:40:02.783Z,1.59
2023-04-19T05:41:02.859Z,1.59
2023-04-19T05:42:02.678Z,1.60
2023-04-19T05:43:02.712Z,1.58
2023-04-19T05:44:02.792Z,1.60
2023-04-19T05:45:03.942Z,1.58
2023-04-19T05:46:02.371Z,1.60
2023-04-19T05:47:03.243Z,1.59
2023-04-19T05:48:03.203Z,1.60
2023-04-19T05:49:02.703Z,1.57
2023-04-19T05:50:03.244Z,1.59
2023-04-19T05:51:03.063Z,1.58
2023-04-19T05:52:02.778Z,1.55
2023-04-19T05:53:02.818Z,1.57
2023-04-19T05:54:02.714Z,1.58
2023-04-19T05:55:02.773Z,1.57
2023-04-19T05:56:02.316Z,1.56
2023-04-19T05:57:03.137Z,1.56
2023-04-19T05:58:02.973Z,1.55
2023-04-19T05:59:03.018Z,1.55
2023-04-19T06:00:03.177Z,1.54
2023-04-19T06:01:02.546Z,1.57
2023-04-19T06:02:03.335Z,1.56
2023-04-19T06:03:03.319Z,1.55
2023-04-19T06:04:03.254Z,1.55
2023-04-19T06:05:09.401Z,1.53
2023-04-19T06:06:03.111Z,1.53
2023-04-19T06:07:06.039Z,1.54
2023-04-19T06:08:03.695Z,1.54
2023-04-19T06:09:03.188Z,1.53
2023-04-19T06:10:03.293Z,1.53
2023-04-19T06:11:11.825Z,1.55
2023-04-19T06:12:02.932Z,1.54
2023-04-19T06:13:02.557Z,1.54
2023-04-19T06:14:02.472Z,1.52
2023-04-19T06:15:02.806Z,1.52
2023-04-19T06:16:02.878Z,1.54
2023-04-19T06:17:03.598Z,1.53
2023-04-19T06:18:03.352Z,1.53
2023-04-19T06:19:03.273Z,1.51
2023-04-19T06:20:03.302Z,1.54
2023-04-19T06:21:03.306Z,1.51
2023-04-19T06:22:03.051Z,1.53
2023-04-19T06:23:02.778Z,1.53
2023-04-19T06:24:02.466Z,1.51
2023-04-19T06:25:02.968Z,1.50
2023-04-19T06:26:02.511Z,1.50
2023-04-19T06:27:02.975Z,1.49
2023-04-19T06:28:03.648Z,1.51
2023-04-19T06:29:03.315Z,1.50
2023-04-19T06:30:03.250Z,1.50
2023-04-19T06:31:03.114Z,1.48
2023-04-19T06:32:02.303Z,1.50
2023-04-19T06:33:02.306Z,1.48
2023-04-19T06:34:02.475Z,1.48
2023-04-19T06:35:02.550Z,1.47
2023-04-19T06:36:02.510Z,1.48
2023-04-19T06:37:02.864Z,1.49
2023-04-19T06:38:02.970Z,1.48
2023-04-19T06:39:02.929Z,1.48
2023-04-19T06:40:02.880Z,1.47
2023-04-19T06:41:02.811Z,1.47
2023-04-19T06:42:02.366Z,1.47
2023-04-19T06:43:02.216Z,1.47
2023-04-19T06:44:02.624Z,1.46
2023-04-19T06:45:02.550Z,1.45
2023-04-19T06:46:02.564Z,1.44
2023-04-19T06:47:02.677Z,1.44
2023-04-19T06:48:02.859Z,1.44
2023-04-19T06:49:02.634Z,1.45
2023-04-19T06:50:03.033Z,1.44
2023-04-19T06:51:02.801Z,1.45
2023-04-19T06:52:03.408Z,1.44
2023-04-19T06:53:04.814Z,1.44
2023-04-19T06:54:02.903Z,1.43
2023-04-19T06:55:02.921Z,1.42
2023-04-19T06:56:02.996Z,1.41
2023-04-19T06:57:02.872Z,1.41
2023-04-19T06:58:02.977Z,1.42
2023-04-19T06:59:03.041Z,1.42
2023-04-19T07:00:02.962Z,1.41
2023-04-19T07:01:03.035Z,1.42
2023-04-19T07:02:02.209Z,1.42
2023-04-19T07:03:02.319Z,1.41
2023-04-19T07:04:02.719Z,1.41
2023-04-19T07:05:02.044Z,1.40
2023-04-19T07:06:02.062Z,1.40
2023-04-19T07:07:02.506Z,1.40
2023-04-19T07:08:02.334Z,1.40
2023-04-19T07:09:02.258Z,1.40
2023-04-19T07:10:02.294Z,1.40
2023-04-19T07:11:02.651Z,1.40
2023-04-19T07:12:02.788Z,1.40
2023-04-19T07:13:02.643Z,1.40
2023-04-19T07:14:02.968Z,1.40
2023-04-19T07:15:03.027Z,1.40
2023-04-19T07:16:03.250Z,1.41
2023-04-19T07:17:02.113Z,1.41
2023-04-19T07:18:02.401Z,1.40
2023-04-19T07:19:02.483Z,1.41
2023-04-19T07:20:02.461Z,1.41
2023-04-19T07:21:01.923Z,1.40
2023-04-19T07:22:02.688Z,1.41
2023-04-19T07:23:02.982Z,1.40
2023-04-19T07:24:03.061Z,1.40
2023-04-19T07:25:03.321Z,1.40
2023-04-19T07:26:03.156Z,1.40
2023-04-19T07:27:02.281Z,1.40
2023-04-19T07:28:02.429Z,1.40
2023-04-19T07:29:02.501Z,1.40
2023-04-19T07:30:02.631Z,1.40
2023-04-19T07:31:02.316Z,1.40
2023-04-19T07:32:02.777Z,1.40
2023-04-19T07:33:02.744Z,1.40
2023-04-19T07:34:02.809Z,1.40
2023-04-19T07:35:02.752Z,1.40
2023-04-19T07:36:02.796Z,1.40
2023-04-19T07:37:02.205Z,1.40
2023-04-19T07:38:02.333Z,1.40
2023-04-19T07:39:02.396Z,1.40
2023-04-19T07:40:02.280Z,1.40
2023-04-19T07:41:02.472Z,1.40
2023-04-19T07:42:02.364Z,1.40
2023-04-19T07:43:02.403Z,1.40
2023-04-19T07:44:02.337Z,1.40
2023-04-19T07:45:02.379Z,1.40
2023-04-19T07:46:02.601Z,1.41
2023-04-19T07:47:02.496Z,1.40
2023-04-19T07:48:02.373Z,1.40
2023-04-19T07:49:02.381Z,1.40
2023-04-19T07:50:02.474Z,1.40
2023-04-19T07:51:02.532Z,1.40
2023-04-19T07:52:02.776Z,1.41
2023-04-19T07:53:02.318Z,1.40
2023-04-19T07:54:02.298Z,1.40
2023-04-19T07:55:02.490Z,1.40
2023-04-19T07:56:02.646Z,1.40
2023-04-19T07:57:02.591Z,1.41
2023-04-19T07:58:02.388Z,1.40
2023-04-19T07:59:08.347Z,1.40
2023-04-19T08:00:02.969Z,1.40
2023-04-19T08:01:02.856Z,1.40
2023-04-19T08:02:02.264Z,1.41
2023-04-19T08:03:02.320Z,1.40
2023-04-19T08:04:02.554Z,1.40
2023-04-19T08:05:02.544Z,1.40
2023-04-19T08:06:02.221Z,1.40
2023-04-19T08:07:02.377Z,1.41
2023-04-19T08:08:02.447Z,1.40
2023-04-19T08:09:02.112Z,1.41
2023-04-19T08:10:02.028Z,1.40
2023-04-19T08:11:02.329Z,1.40
2023-04-19T08:12:02.461Z,1.40
2023-04-19T08:13:06.008Z,1.41
2023-04-19T08:14:12.095Z,1.40
2023-04-19T08:15:14.828Z,1.41
2023-04-19T08:16:40.300Z,1.40
2023-04-19T08:18:02.744Z,1.40
2023-04-19T08:19:02.712Z,1.40
2023-04-19T08:20:02.850Z,1.40
2023-04-19T08:21:02.728Z,1.40
2023-04-19T08:22:02.989Z,1.40
2023-04-19T08:23:10.860Z,1.40
2023-04-19T08:24:02.958Z,1.40
2023-04-19T08:25:03.071Z,1.41
2023-04-19T08:26:02.887Z,1.40
2023-04-19T08:27:02.629Z,1.41
2023-04-19T08:28:02.711Z,1.40
2023-04-19T08:29:02.743Z,1.40
2023-04-19T08:30:02.747Z,1.40
2023-04-19T08:31:02.759Z,1.41
2023-04-19T08:32:02.491Z,1.40
2023-04-19T08:33:02.054Z,1.40
2023-04-19T08:34:02.122Z,1.41
2023-04-19T08:35:01.970Z,1.40
2023-04-19T08:36:02.070Z,1.40
2023-04-19T08:37:04.567Z,1.40
2023-04-19T08:38:03.341Z,1.41
2023-04-19T08:39:08.166Z,1.40
2023-04-19T08:40:02.842Z,1.40
2023-04-19T08:41:02.909Z,1.40
2023-04-19T08:42:07.426Z,1.41
2023-04-19T08:43:03.011Z,1.41
2023-04-19T08:44:02.532Z,1.41
2023-04-19T08:45:26.302Z,1.40
2023-04-19T08:46:02.649Z,1.40
2023-04-19T08:47:03.179Z,1.41
2023-04-19T08:48:03.496Z,1.41
2023-04-19T08:49:03.190Z,1.40
2023-04-19T08:51:05.388Z,1.40
2023-04-19T08:52:02.426Z,1.40
2023-04-19T08:53:12.373Z,1.40
2023-04-19T08:54:02.470Z,1.41
2023-04-19T08:55:02.213Z,1.40
2023-04-19T08:56:10.624Z,1.41
2023-04-19T08:57:02.508Z,1.41
2023-04-19T08:58:03.703Z,1.41
2023-04-19T08:59:15.790Z,1.40
2023-04-19T09:00:02.214Z,1.41
2023-04-19T09:01:02.289Z,1.40
2023-04-19T09:02:03.207Z,1.40
2023-04-19T09:03:03.099Z,1.41
2023-04-19T09:04:10.187Z,1.41
2023-04-19T09:05:03.041Z,1.40
2023-04-19T09:06:02.896Z,1.40
2023-04-19T09:07:02.348Z,1.41
2023-04-19T09:08:02.342Z,1.41
2023-04-19T09:09:02.379Z,1.41
2023-04-19T09:10:03.345Z,1.41
2023-04-19T09:11:02.254Z,1.40
2023-04-19T09:12:02.498Z,1.41
2023-04-19T09:13:02.582Z,1.40
2023-04-19T09:14:02.679Z,1.41
2023-04-19T09:15:02.984Z,1.41
2023-04-19T09:16:02.772Z,1.40
2023-04-19T09:17:03.247Z,1.41
2023-04-19T09:18:03.297Z,1.40
2023-04-19T09:20:03.526Z,1.41
2023-04-19T09:21:03.186Z,1.41
2023-04-19T09:22:02.565Z,1.41
2023-04-19T09:23:02.570Z,1.41
2023-04-19T09:24:03.639Z,1.40
2023-04-19T09:25:35.292Z,1.40
2023-04-19T09:26:21.495Z,1.41
2023-04-19T09:27:03.342Z,1.41
2023-04-19T09:28:03.415Z,1.41
2023-04-19T09:29:03.541Z,1.40
2023-04-19T09:30:03.184Z,1.41
2023-04-19T09:31:15.127Z,1.41
2023-04-19T09:32:02.840Z,1.41
2023-04-19T09:33:02.466Z,1.40
2023-04-19T09:34:02.270Z,1.41
2023-04-19T09:35:02.820Z,1.40
2023-04-19T09:36:02.620Z,1.40
2023-04-19T09:37:12.169Z,1.41
2023-04-19T09:38:06.746Z,1.41
2023-04-19T09:39:03.094Z,1.40
2023-04-19T09:40:03.099Z,1.40
2023-04-19T09:41:03.170Z,1.41
2023-04-19T09:42:02.267Z,1.41
2023-04-19T09:43:12.887Z,1.40
2023-04-19T09:45:28.379Z,1.40
2023-04-19T09:46:02.648Z,1.41
2023-04-19T09:47:02.743Z,1.41
2023-04-19T09:48:02.692Z,1.40
2023-04-19T09:49:09.440Z,1.40
2023-04-19T09:50:08.911Z,1.40
2023-04-19T09:51:07.318Z,1.41
2023-04-19T09:52:02.747Z,1.40
2023-04-19T09:53:02.779Z,1.41
2023-04-19T09:54:03.212Z,1.40
2023-04-19T09:55:04.761Z,1.41
2023-04-19T09:56:04.364Z,1.41
2023-04-19T09:57:02.380Z,1.41
2023-04-19T09:58:02.436Z,1.40
2023-04-19T09:59:12.890Z,1.41
2023-04-19T10:00:02.334Z,1.41
2023-04-19T10:01:13.342Z,1.41
2023-04-19T10:02:02.824Z,1.41
2023-04-19T10:03:02.927Z,1.40
2023-04-19T10:04:19.816Z,1.41
2023-04-19T10:05:19.843Z,1.40
2023-04-19T10:06:10.635Z,1.41
2023-04-19T10:08:02.400Z,1.41
2023-04-19T10:09:02.357Z,1.40
2023-04-19T10:10:16.107Z,1.40
2023-04-19T10:11:02.338Z,1.41
2023-04-19T10:12:13.175Z,1.41
2023-04-19T10:14:02.555Z,1.41
2023-04-19T10:15:02.598Z,1.40
2023-04-19T10:16:15.602Z,1.40
2023-04-19T10:17:02.715Z,1.41
2023-04-19T10:18:03.153Z,1.41
2023-04-19T10:19:02.657Z,1.40
2023-04-19T10:20:02.558Z,1.40
2023-04-19T10:21:02.655Z,1.41
2023-04-19T10:22:02.722Z,1.41
2023-04-19T10:23:03.091Z,1.41
2023-04-19T10:24:03.225Z,1.41
2023-04-19T10:25:02.993Z,1.40
2023-04-19T10:26:02.752Z,1.41
2023-04-19T10:27:03.723Z,1.41
2023-04-19T10:28:03.585Z,1.41
2023-04-19T10:29:03.594Z,1.41
2023-04-19T10:30:04.561Z,1.40
2023-04-19T10:31:03.412Z,1.40
2023-04-19T10:32:02.504Z,1.41
2023-04-19T10:33:02.586Z,1.40
2023-04-19T10:34:02.448Z,1.41
2023-04-19T10:35:02.509Z,1.41
2023-04-19T10:36:02.367Z,1.41
2023-04-19T10:37:03.002Z,1.41
2023-04-19T10:38:02.952Z,1.41
2023-04-19T10:39:03.321Z,1.40
2023-04-19T10:40:03.056Z,1.40
2023-04-19T10:41:03.126Z,1.41
2023-04-19T10:42:03.182Z,1.40
2023-04-19T10:43:03.253Z,1.41
2023-04-19T10:44:03.448Z,1.41
2023-04-19T10:45:03.477Z,1.40
2023-04-19T10:46:03.435Z,1.41
2023-04-19T10:47:02.841Z,1.40
2023-04-19T10:48:02.728Z,1.41
2023-04-19T10:49:03.239Z,1.41
2023-04-19T10:50:03.065Z,1.41
2023-04-19T10:51:03.099Z,1.41
2023-04-19T10:52:03.391Z,1.41
2023-04-19T10:53:03.494Z,1.41
2023-04-19T10:54:03.381Z,1.40
2023-04-19T10:55:03.211Z,1.41
2023-04-19T10:56:03.331Z,1.40
2023-04-19T10:57:03.367Z,1.41
2023-04-19T10:58:03.375Z,1.41
2023-04-19T10:59:03.323Z,1.41
2023-04-19T11:00:03.296Z,1.41
2023-04-19T11:01:03.571Z,1.40
2023-04-19T11:02:02.772Z,1.41
2023-04-19T11:03:03.057Z,1.40
2023-04-19T11:04:03.204Z,1.40
2023-04-19T11:05:03.036Z,1.41
2023-04-19T11:06:02.846Z,1.41
2023-04-19T11:07:03.248Z,1.41
2023-04-19T11:08:02.968Z,1.41
2023-04-19T11:09:03.511Z,1.40
2023-04-19T11:10:03.567Z,1.41
2023-04-19T11:11:03.063Z,1.41
2023-04-19T11:12:02.785Z,1.41
2023-04-19T11:13:02.954Z,1.41
2023-04-19T11:14:02.579Z,1.41
2023-04-19T11:15:02.415Z,1.41
2023-04-19T11:16:02.943Z,1.41
2023-04-19T11:17:03.155Z,1.41
2023-04-19T11:18:12.450Z,1.41
2023-04-19T11:19:03.150Z,1.41
2023-04-19T11:20:03.085Z,1.41
2023-04-19T11:21:03.013Z,1.41
2023-04-19T11:22:03.141Z,1.41
2023-04-19T11:23:03.177Z,1.41
2023-04-19T11:24:02.864Z,1.41
2023-04-19T11:25:03.034Z,1.41
2023-04-19T11:26:02.951Z,1.41
2023-04-19T11:27:02.748Z,1.41
2023-04-19T11:28:03.070Z,1.41
2023-04-19T11:29:02.888Z,1.41
2023-04-19T11:30:02.946Z,1.40
2023-04-19T11:31:02.706Z,1.41
2023-04-19T11:32:02.861Z,1.41
2023-04-19T11:33:03.199Z,1.41
2023-04-19T11:34:03.133Z,1.41
2023-04-19T11:35:03.025Z,1.41
2023-04-19T11:36:03.036Z,1.41
2023-04-19T11:37:03.557Z,1.41
2023-04-19T11:38:03.212Z,1.41
2023-04-19T11:39:03.413Z,1.41
2023-04-19T11:40:04.861Z,1.41
2023-04-19T11:41:03.417Z,1.41
2023-04-19T11:42:02.967Z,1.41
2023-04-19T11:43:03.089Z,1.41
2023-04-19T11:44:03.252Z,1.41
2023-04-19T11:45:03.003Z,1.41
2023-04-19T11:46:03.194Z,1.40
2023-04-19T11:47:03.133Z,1.41
2023-04-19T11:48:03.152Z,1.41
2023-04-19T11:49:02.984Z,1.41
2023-04-19T11:50:03.127Z,1.41
2023-04-19T11:51:02.944Z,1.40
2023-04-19T11:52:05.704Z,1.41
2023-04-19T11:53:03.745Z,1.41
2023-04-19T11:54:03.631Z,1.41
2023-04-19T11:55:03.483Z,1.40
2023-04-19T11:56:03.472Z,1.41
2023-04-19T11:57:03.371Z,1.41
2023-04-19T11:58:03.029Z,1.41
2023-04-19T11:59:03.102Z,1.41
2023-04-19T12:00:03.316Z,1.40
2023-04-19T12:01:03.456Z,1.41
2023-04-19T12:02:02.713Z,1.41
2023-04-19T12:03:02.903Z,1.41
2023-04-19T12:04:02.226Z,1.40
2023-04-19T12:05:02.730Z,1.41
2023-04-19T12:06:02.792Z,1.41
2023-04-19T12:07:03.231Z,1.41
2023-04-19T12:08:03.106Z,1.41
2023-04-19T12:09:03.104Z,1.41
2023-04-19T12:10:02.818Z,1.41
2023-04-19T12:11:02.794Z,1.40
2023-04-19T12:12:03.615Z,1.40
2023-04-19T12:13:03.565Z,1.41
2023-04-19T12:14:03.685Z,1.41
2023-04-19T12:15:03.569Z,1.41
2023-04-19T12:16:03.775Z,1.41
2023-04-19T12:17:03.296Z,1.41
2023-04-19T12:18:03.043Z,1.41
2023-04-19T12:19:02.811Z,1.41
2023-04-19T12:20:02.895Z,1.41
2023-04-19T12:21:03.059Z,1.41
2023-04-19T12:22:03.727Z,1.41
2023-04-19T12:23:03.705Z,1.41
2023-04-19T12:24:03.200Z,1.40
2023-04-19T12:25:03.379Z,1.41
2023-04-19T12:26:03.483Z,1.41
2023-04-19T12:28:02.774Z,1.40
2023-04-19T12:28:14.594Z,1.41
2023-04-19T12:29:03.030Z,1.40
2023-04-19T12:30:02.909Z,1.41
2023-04-19T12:31:02.935Z,1.41
2023-04-19T12:32:03.137Z,1.41
2023-04-19T12:33:03.212Z,1.41
2023-04-19T12:34:03.120Z,1.41
2023-04-19T12:35:03.275Z,1.41
2023-04-19T12:36:03.719Z,1.41
2023-04-19T12:37:03.508Z,1.41
2023-04-19T12:38:03.266Z,1.40
2023-04-19T12:39:02.919Z,1.41
2023-04-19T12:40:02.906Z,1.41
2023-04-19T12:41:03.038Z,1.41
2023-04-19T12:42:03.118Z,1.41
2023-04-19T12:43:02.363Z,1.41
2023-04-19T12:44:02.692Z,1.40
2023-04-19T12:45:02.638Z,1.41
2023-04-19T12:46:02.855Z,1.41
2023-04-19T12:47:02.626Z,1.41
2023-04-19T12:48:02.584Z,1.41
2023-04-19T12:49:02.632Z,1.41
2023-04-19T12:50:02.778Z,1.41
2023-04-19T12:51:02.930Z,1.41
2023-04-19T12:52:03.005Z,1.41
2023-04-19T12:53:02.935Z,1.41
2023-04-19T12:54:03.092Z,1.40
2023-04-19T12:55:02.970Z,1.41
2023-04-19T12:56:03.039Z,1.41
2023-04-19T12:57:03.633Z,1.41
2023-04-19T12:58:03.602Z,1.41
2023-04-19T12:59:03.770Z,1.41
2023-04-19T13:00:03.524Z,1.40
2023-04-19T13:01:03.755Z,1.41
2023-04-19T13:02:03.286Z,1.41
2023-04-19T13:03:03.422Z,1.41
2023-04-19T13:04:03.518Z,1.41
2023-04-19T13:05:03.310Z,1.41
2023-04-19T13:06:03.404Z,1.41
2023-04-19T13:07:03.161Z,1.40
2023-04-19T13:08:02.945Z,1.41
2023-04-19T13:09:11.416Z,1.41
2023-04-19T13:10:03.127Z,1.41
2023-04-19T13:11:02.701Z,1.41
2023-04-19T13:12:02.481Z,1.41
2023-04-19T13:13:03.294Z,1.40
2023-04-19T13:14:03.069Z,1.41
2023-04-19T13:15:04.867Z,1.41
2023-04-19T13:16:03.391Z,1.41
2023-04-19T13:17:03.292Z,1.41
2023-04-19T13:18:03.506Z,1.41
2023-04-19T13:19:03.337Z,1.41
2023-04-19T13:20:03.135Z,1.41
2023-04-19T13:21:03.204Z,1.41
2023-04-19T13:22:03.258Z,1.41
2023-04-19T13:23:03.115Z,1.41
2023-04-19T13:24:03.006Z,1.41
2023-04-19T13:25:02.564Z,1.41
2023-04-19T13:26:02.569Z,1.41